createdAt,value
2019-02-25T00:00:36.423Z,44.22
2019-02-25T00:01:44.480Z,44.22
2019-02-25T00:02:52.533Z,44.22
2019-02-25T00:04:00.583Z,44.41
2019-02-25T00:05:08.650Z,44.03
2019-02-25T00:06:16.696Z,43.94
2019-02-25T00:07:24.769Z,44.51
2019-02-25T00:08:32.819Z,43.84
2019-02-25T00:09:41.275Z,44.22
2019-02-25T00:10:48.934Z,44.41
2019-02-25T00:11:57.000Z,44.79
2019-02-25T00:13:05.151Z,44.79
2019-02-25T00:14:13.112Z,44.89
2019-02-25T00:15:21.173Z,45.55
2019-02-25T00:16:29.491Z,46.02
2019-02-25T00:17:37.452Z,46.02
2019-02-25T00:18:45.583Z,45.93
2019-02-25T00:19:53.608Z,46.31
2019-02-25T00:21:01.724Z,46.50
2019-02-25T00:22:09.703Z,46.59
2019-02-25T00:23:17.736Z,45.26
2019-02-25T00:24:25.858Z,46.59
2019-02-25T00:25:33.941Z,46.50
2019-02-25T00:26:41.972Z,46.02
2019-02-25T00:27:49.989Z,45.45
2019-02-25T00:28:58.082Z,45.45
2019-02-25T00:30:05.958Z,45.36
2019-02-25T00:31:13.950Z,44.98
2019-02-25T00:32:21.998Z,45.64
2019-02-25T00:33:30.048Z,46.59
2019-02-25T00:34:38.107Z,46.69
2019-02-25T00:35:46.171Z,46.02
2019-02-25T00:36:54.246Z,46.02
2019-02-25T00:38:02.309Z,46.59
2019-02-25T00:39:10.361Z,46.50
2019-02-25T00:40:18.394Z,46.02
2019-02-25T00:41:26.437Z,46.02
2019-02-25T00:42:34.509Z,45.83
2019-02-25T00:43:42.570Z,45.64
2019-02-25T00:44:50.629Z,45.17
2019-02-25T00:45:58.695Z,45.17
2019-02-25T00:47:06.735Z,44.60
2019-02-25T00:48:14.788Z,44.70
2019-02-25T00:49:22.859Z,44.70
2019-02-25T00:50:30.896Z,44.70
2019-02-25T00:51:38.964Z,44.41
2019-02-25T00:52:47.022Z,44.13
2019-02-25T00:53:55.082Z,43.65
2019-02-25T00:55:03.140Z,43.84
2019-02-25T00:56:11.176Z,43.27
2019-02-25T00:57:19.243Z,43.37
2019-02-25T00:58:27.298Z,43.27
2019-02-25T00:59:35.351Z,43.30
2019-02-25T01:00:43.411Z,43.68
2019-02-25T01:01:51.468Z,43.39
2019-02-25T01:02:59.522Z,43.46
2019-02-25T01:04:07.555Z,43.77
2019-02-25T01:05:15.635Z,43.18
2019-02-25T01:06:23.708Z,43.77
2019-02-25T01:07:31.745Z,44.06
2019-02-25T01:08:39.799Z,43.77
2019-02-25T01:09:47.839Z,44.43
2019-02-25T01:10:55.919Z,44.34
2019-02-25T01:12:03.966Z,43.39
2019-02-25T01:13:12.048Z,43.58
2019-02-25T01:14:20.081Z,43.58
2019-02-25T01:15:28.149Z,43.39
2019-02-25T01:16:36.199Z,43.87
2019-02-25T01:17:44.251Z,43.77
2019-02-25T01:18:52.332Z,43.39
2019-02-25T01:20:00.373Z,43.39
2019-02-25T01:21:08.462Z,43.11
2019-02-25T01:22:16.477Z,43.01
2019-02-25T01:23:24.536Z,43.39
2019-02-25T01:24:32.593Z,43.58
2019-02-25T01:25:40.649Z,44.24
2019-02-25T01:26:48.713Z,44.34
2019-02-25T01:27:56.824Z,44.24
2019-02-25T01:29:04.852Z,44.06
2019-02-25T01:30:12.887Z,44.43
2019-02-25T01:31:20.926Z,44.24
2019-02-25T01:32:29.024Z,45.10
2019-02-25T01:33:37.053Z,45.38
2019-02-25T01:34:45.110Z,46.23
2019-02-25T01:35:53.169Z,46.71
2019-02-25T01:37:01.220Z,45.19
2019-02-25T01:38:09.304Z,45.19
2019-02-25T01:39:17.315Z,45.29
2019-02-25T01:40:25.383Z,45.38
2019-02-25T01:41:33.444Z,45.67
2019-02-25T01:42:41.491Z,44.72
2019-02-25T01:43:49.560Z,44.06
2019-02-25T01:44:57.596Z,43.77
2019-02-25T01:46:05.663Z,43.68
2019-02-25T01:47:13.712Z,44.06
2019-02-25T01:48:21.785Z,44.81
2019-02-25T01:49:29.847Z,43.96
2019-02-25T01:50:37.888Z,43.68
2019-02-25T01:51:45.941Z,43.20
2019-02-25T01:52:54.008Z,42.92
2019-02-25T01:54:02.053Z,43.68
2019-02-25T01:55:10.129Z,43.11
2019-02-25T01:56:18.163Z,43.41
2019-02-25T01:57:26.219Z,43.70
2019-02-25T01:58:34.302Z,43.60
2019-02-25T01:59:42.359Z,44.08
2019-02-25T02:00:50.404Z,43.68
2019-02-25T02:01:58.448Z,44.43
2019-02-25T02:03:06.529Z,45.10
2019-02-25T02:04:14.571Z,44.91
2019-02-25T02:05:24.395Z,44.81
2019-02-25T02:06:30.685Z,44.72
2019-02-25T02:07:38.766Z,45.38
2019-02-25T02:08:46.801Z,44.91
2019-02-25T02:09:54.861Z,45.38
2019-02-25T02:11:02.935Z,46.04
2019-02-25T02:12:10.980Z,46.42
2019-02-25T02:13:19.024Z,46.90
2019-02-25T02:14:27.085Z,47.85
2019-02-25T02:15:35.154Z,47.28
2019-02-25T02:16:43.201Z,46.80
2019-02-25T02:17:51.260Z,47.49
2019-02-25T02:18:59.306Z,47.47
2019-02-25T02:20:07.345Z,47.37
2019-02-25T02:21:15.415Z,47.28
2019-02-25T02:22:23.476Z,47.66
2019-02-25T02:23:31.533Z,48.22
2019-02-25T02:24:39.597Z,49.17
2019-02-25T02:25:47.627Z,49.08
2019-02-25T02:26:55.716Z,49.74
2019-02-25T02:28:03.762Z,49.84
2019-02-25T02:29:11.817Z,50.62
2019-02-25T02:30:19.878Z,50.62
2019-02-25T02:31:27.919Z,50.43
2019-02-25T02:32:35.991Z,50.43
2019-02-25T02:33:44.044Z,50.71
2019-02-25T02:34:52.104Z,50.62
2019-02-25T02:36:00.147Z,50.52
2019-02-25T02:37:08.210Z,50.62
2019-02-25T02:38:16.267Z,50.40
2019-02-25T02:39:24.372Z,51.37
2019-02-25T02:40:32.380Z,51.73
2019-02-25T02:41:40.440Z,52.87
2019-02-25T02:42:48.507Z,52.39
2019-02-25T02:43:56.565Z,52.39
2019-02-25T02:45:04.608Z,52.96
2019-02-25T02:46:12.661Z,52.58
2019-02-25T02:47:20.722Z,51.82
2019-02-25T02:48:28.790Z,52.14
2019-02-25T02:49:36.840Z,51.57
2019-02-25T02:50:44.909Z,50.52
2019-02-25T02:51:52.963Z,51.18
2019-02-25T02:53:01.033Z,51.47
2019-02-25T02:54:09.079Z,51.82
2019-02-25T02:55:17.112Z,52.51
2019-02-25T02:56:25.189Z,52.87
2019-02-25T02:57:33.245Z,53.06
2019-02-25T02:58:41.289Z,52.98
2019-02-25T02:59:49.345Z,53.06
2019-02-25T03:00:57.373Z,53.56
2019-02-25T03:02:05.445Z,53.91
2019-02-25T03:03:13.521Z,54.10
2019-02-25T03:04:21.568Z,53.81
2019-02-25T03:05:29.634Z,53.53
2019-02-25T03:06:37.654Z,53.72
2019-02-25T03:07:45.740Z,53.75
2019-02-25T03:08:53.807Z,54.10
2019-02-25T03:10:01.842Z,53.75
2019-02-25T03:11:09.905Z,53.56
2019-02-25T03:12:17.937Z,53.65
2019-02-25T03:13:26.034Z,53.75
2019-02-25T03:14:34.092Z,53.94
2019-02-25T03:15:42.140Z,54.13
2019-02-25T03:16:50.191Z,54.22
2019-02-25T03:17:58.268Z,53.75
2019-02-25T03:19:06.308Z,53.94
2019-02-25T03:20:14.361Z,53.75
2019-02-25T03:21:22.416Z,53.94
2019-02-25T03:22:30.471Z,54.22
2019-02-25T03:23:38.533Z,54.22
2019-02-25T03:24:46.590Z,54.60
2019-02-25T03:25:54.647Z,54.79
2019-02-25T03:27:02.708Z,54.79
2019-02-25T03:28:10.743Z,54.88
2019-02-25T03:29:18.818Z,54.98
2019-02-25T03:30:26.888Z,54.88
2019-02-25T03:31:34.939Z,54.22
2019-02-25T03:32:43.001Z,53.94
2019-02-25T03:33:51.105Z,54.60
2019-02-25T03:34:59.097Z,54.41
2019-02-25T03:36:07.153Z,54.60
2019-02-25T03:37:15.221Z,55.26
2019-02-25T03:38:23.278Z,55.07
2019-02-25T03:39:31.328Z,55.07
2019-02-25T03:40:39.378Z,54.88
2019-02-25T03:41:47.436Z,55.26
2019-02-25T03:42:55.501Z,55.17
2019-02-25T03:44:03.561Z,54.98
2019-02-25T03:45:11.632Z,55.07
2019-02-25T03:46:19.677Z,55.45
2019-02-25T03:47:27.739Z,56.30
2019-02-25T03:48:35.811Z,55.93
2019-02-25T03:49:43.826Z,56.78
2019-02-25T03:50:51.906Z,57.06
2019-02-25T03:51:59.944Z,57.70
2019-02-25T03:53:08.007Z,57.54
2019-02-25T03:54:16.106Z,56.78
2019-02-25T03:55:24.161Z,57.82
2019-02-25T03:56:32.198Z,57.73
2019-02-25T03:57:40.281Z,57.64
2019-02-25T03:58:48.322Z,57.64
2019-02-25T03:59:56.381Z,58.11
2019-02-25T04:01:04.442Z,57.64
2019-02-25T04:02:12.471Z,57.35
2019-02-25T04:03:20.543Z,58.01
2019-02-25T04:04:28.573Z,57.73
2019-02-25T04:05:36.639Z,57.82
2019-02-25T04:06:44.683Z,57.64
2019-02-25T04:07:52.761Z,57.54
2019-02-25T04:09:00.798Z,57.64
2019-02-25T04:10:08.845Z,57.54
2019-02-25T04:11:16.913Z,57.35
2019-02-25T04:12:24.979Z,57.16
2019-02-25T04:13:33.047Z,57.25
2019-02-25T04:14:41.119Z,57.16
2019-02-25T04:15:49.149Z,57.54
2019-02-25T04:16:57.187Z,57.44
2019-02-25T04:18:05.262Z,57.44
2019-02-25T04:19:13.327Z,57.25
2019-02-25T04:20:21.381Z,57.35
2019-02-25T04:21:29.441Z,57.44
2019-02-25T04:22:37.460Z,57.54
2019-02-25T04:23:45.547Z,57.82
2019-02-25T04:24:53.589Z,57.54
2019-02-25T04:26:01.655Z,57.73
2019-02-25T04:27:09.719Z,57.25
2019-02-25T04:28:17.753Z,57.35
2019-02-25T04:29:25.832Z,57.25
2019-02-25T04:30:33.893Z,57.35
2019-02-25T04:31:41.941Z,58.39
2019-02-25T04:32:50.010Z,57.06
2019-02-25T04:33:58.040Z,57.35
2019-02-25T04:35:06.116Z,57.44
2019-02-25T04:36:14.181Z,58.11
2019-02-25T04:37:22.238Z,58.01
2019-02-25T04:38:30.288Z,58.11
2019-02-25T04:39:38.356Z,58.20
2019-02-25T04:40:46.413Z,58.01
2019-02-25T04:41:54.447Z,58.01
2019-02-25T04:43:02.505Z,57.82
2019-02-25T04:44:10.572Z,57.54
2019-02-25T04:45:18.628Z,57.82
2019-02-25T04:46:26.690Z,58.01
2019-02-25T04:47:34.748Z,58.01
2019-02-25T04:48:42.815Z,57.92
2019-02-25T04:49:50.849Z,57.73
2019-02-25T04:50:58.907Z,58.29
2019-02-25T04:52:06.968Z,58.77
2019-02-25T04:53:15.020Z,58.77
2019-02-25T04:54:23.071Z,58.67
2019-02-25T04:55:31.140Z,57.92
2019-02-25T04:56:39.193Z,57.82
2019-02-25T04:57:47.231Z,57.82
2019-02-25T04:58:55.296Z,58.20
2019-02-25T05:00:03.361Z,57.82
2019-02-25T05:01:11.430Z,58.11
2019-02-25T05:02:19.467Z,58.39
2019-02-25T05:03:27.501Z,58.86
2019-02-25T05:04:35.584Z,58.48
2019-02-25T05:05:43.646Z,58.58
2019-02-25T05:06:51.718Z,59.44
2019-02-25T05:07:59.772Z,59.53
2019-02-25T05:09:07.794Z,59.44
2019-02-25T05:10:15.882Z,59.81
2019-02-25T05:11:25.595Z,59.44
2019-02-25T05:12:31.994Z,59.44
2019-02-25T05:13:40.050Z,59.91
2019-02-25T05:14:48.133Z,59.72
2019-02-25T05:15:56.168Z,59.53
2019-02-25T05:17:04.197Z,58.58
2019-02-25T05:18:12.276Z,58.86
2019-02-25T05:19:20.322Z,59.44
2019-02-25T05:20:28.370Z,59.53
2019-02-25T05:21:36.456Z,59.91
2019-02-25T05:22:44.508Z,59.91
2019-02-25T05:23:52.556Z,59.53
2019-02-25T05:25:00.631Z,60.10
2019-02-25T05:26:08.673Z,59.72
2019-02-25T05:27:16.717Z,60.38
2019-02-25T05:28:24.790Z,59.91
2019-02-25T05:29:32.844Z,60.10
2019-02-25T05:30:40.917Z,60.28
2019-02-25T05:31:48.938Z,60.19
2019-02-25T05:32:57.016Z,60.76
2019-02-25T05:34:05.084Z,61.05
2019-02-25T05:35:13.147Z,61.52
2019-02-25T05:36:21.180Z,61.52
2019-02-25T05:37:29.351Z,61.24
2019-02-25T05:38:38.041Z,61.14
2019-02-25T05:39:45.342Z,60.86
2019-02-25T05:40:53.408Z,60.57
2019-02-25T05:42:01.491Z,60.19
2019-02-25T05:43:09.508Z,60.19
2019-02-25T05:44:17.553Z,60.67
2019-02-25T05:45:25.637Z,60.10
2019-02-25T05:46:33.807Z,60.38
2019-02-25T05:47:41.753Z,60.86
2019-02-25T05:48:49.820Z,61.33
2019-02-25T05:49:57.833Z,61.52
2019-02-25T05:51:06.200Z,61.52
2019-02-25T05:52:14.391Z,61.43
2019-02-25T05:53:22.430Z,61.61
2019-02-25T05:54:30.108Z,61.52
2019-02-25T05:55:38.744Z,61.24
2019-02-25T05:56:46.205Z,61.43
2019-02-25T05:57:54.256Z,61.43
2019-02-25T05:59:02.327Z,61.61
2019-02-25T06:00:10.374Z,61.33
2019-02-25T06:01:18.430Z,61.71
2019-02-25T06:02:26.496Z,61.61
2019-02-25T06:03:34.553Z,61.80
2019-02-25T06:04:42.600Z,62.66
2019-02-25T06:05:50.665Z,62.47
2019-02-25T06:06:58.726Z,63.13
2019-02-25T06:08:06.774Z,63.32
2019-02-25T06:09:14.839Z,63.42
2019-02-25T06:10:22.907Z,63.51
2019-02-25T06:11:30.944Z,63.04
2019-02-25T06:12:39.010Z,63.04
2019-02-25T06:13:47.056Z,63.32
2019-02-25T06:14:55.133Z,63.60
2019-02-25T06:16:03.184Z,64.17
2019-02-25T06:17:11.243Z,64.74
2019-02-25T06:18:19.297Z,64.93
2019-02-25T06:19:27.351Z,65.12
2019-02-25T06:20:35.411Z,65.22
2019-02-25T06:21:43.453Z,65.41
2019-02-25T06:22:51.533Z,64.93
2019-02-25T06:23:59.583Z,64.84
2019-02-25T06:25:07.617Z,64.93
2019-02-25T06:26:15.698Z,65.03
2019-02-25T06:27:30.407Z,64.65
2019-02-25T06:28:31.825Z,64.84
2019-02-25T06:29:39.883Z,64.74
2019-02-25T06:30:47.914Z,64.84
2019-02-25T06:31:55.990Z,64.65
2019-02-25T06:33:04.048Z,64.74
2019-02-25T06:34:12.109Z,64.84
2019-02-25T06:35:20.203Z,64.74
2019-02-25T06:36:28.205Z,65.31
2019-02-25T06:37:36.278Z,65.78
2019-02-25T06:38:44.355Z,65.88
2019-02-25T06:39:53.259Z,66.45
2019-02-25T06:41:00.448Z,66.45
2019-02-25T06:42:08.497Z,66.64
2019-02-25T06:43:16.564Z,66.74
2019-02-25T06:44:24.610Z,66.35
2019-02-25T06:45:32.676Z,66.45
2019-02-25T06:46:40.741Z,65.97
2019-02-25T06:47:48.785Z,66.35
2019-02-25T06:48:56.844Z,67.30
2019-02-25T06:50:04.899Z,67.21
2019-02-25T06:51:12.968Z,67.68
2019-02-25T06:52:21.029Z,67.68
2019-02-25T06:53:29.088Z,67.87
2019-02-25T06:54:37.129Z,67.58
2019-02-25T06:55:45.196Z,67.68
2019-02-25T06:56:53.260Z,68.25
2019-02-25T06:58:01.320Z,67.81
2019-02-25T06:59:09.359Z,66.58
2019-02-25T07:00:17.398Z,65.72
2019-02-25T07:01:25.495Z,64.71
2019-02-25T07:02:33.545Z,64.14
2019-02-25T07:03:43.560Z,64.33
2019-02-25T07:04:49.656Z,62.46
2019-02-25T07:05:57.709Z,62.08
2019-02-25T07:07:05.779Z,62.46
2019-02-25T07:08:13.835Z,62.56
2019-02-25T07:09:21.905Z,62.56
2019-02-25T07:10:29.948Z,62.46
2019-02-25T07:11:38.004Z,62.24
2019-02-25T07:12:46.085Z,63.23
2019-02-25T07:13:54.130Z,64.14
2019-02-25T07:15:02.225Z,64.05
2019-02-25T07:16:10.243Z,63.89
2019-02-25T07:17:18.308Z,63.60
2019-02-25T07:18:26.363Z,62.75
2019-02-25T07:19:34.435Z,63.70
2019-02-25T07:20:42.796Z,63.04
2019-02-25T07:21:50.545Z,62.27
2019-02-25T07:22:58.611Z,62.46
2019-02-25T07:24:06.673Z,62.18
2019-02-25T07:25:14.723Z,62.08
2019-02-25T07:26:22.788Z,61.90
2019-02-25T07:27:30.858Z,62.46
2019-02-25T07:28:38.913Z,61.90
2019-02-25T07:29:46.953Z,61.80
2019-02-25T07:30:55.036Z,61.90
2019-02-25T07:32:03.107Z,62.08
2019-02-25T07:33:11.155Z,62.18
2019-02-25T07:34:19.214Z,61.99
2019-02-25T07:35:27.302Z,62.08
2019-02-25T07:36:35.332Z,61.90
2019-02-25T07:37:43.400Z,61.80
2019-02-25T07:38:51.443Z,62.18
2019-02-25T07:39:59.523Z,61.90
2019-02-25T07:41:07.534Z,61.90
2019-02-25T07:42:15.636Z,61.90
2019-02-25T07:43:23.721Z,61.83
2019-02-25T07:44:31.740Z,61.52
2019-02-25T07:45:39.838Z,61.55
2019-02-25T07:46:47.848Z,61.65
2019-02-25T07:47:56.082Z,60.22
2019-02-25T07:49:03.980Z,60.22
2019-02-25T07:50:12.063Z,60.69
2019-02-25T07:51:20.127Z,60.41
2019-02-25T07:52:28.162Z,60.35
2019-02-25T07:53:36.250Z,59.77
2019-02-25T07:54:44.335Z,59.87
2019-02-25T07:55:52.353Z,59.58
2019-02-25T07:57:00.419Z,60.06
2019-02-25T07:58:08.480Z,58.92
2019-02-25T07:59:16.545Z,59.96
2019-02-25T08:00:24.601Z,59.87
2019-02-25T08:01:32.651Z,60.06
2019-02-25T08:02:40.732Z,59.87
2019-02-25T08:03:48.773Z,59.87
2019-02-25T08:04:56.859Z,60.25
2019-02-25T08:06:04.882Z,60.25
2019-02-25T08:07:12.974Z,59.20
2019-02-25T08:08:21.024Z,59.87
2019-02-25T08:09:29.079Z,60.44
2019-02-25T08:10:37.129Z,59.77
2019-02-25T08:11:45.191Z,59.77
2019-02-25T08:12:53.279Z,59.71
2019-02-25T08:14:01.328Z,59.30
2019-02-25T08:15:09.387Z,59.01
2019-02-25T08:16:17.418Z,59.39
2019-02-25T08:17:25.519Z,60.06
2019-02-25T08:18:33.573Z,62.02
2019-02-25T08:19:41.635Z,61.36
2019-02-25T08:20:49.710Z,61.83
2019-02-25T08:21:57.740Z,62.40
2019-02-25T08:23:05.818Z,62.69
2019-02-25T08:24:13.874Z,62.21
2019-02-25T08:25:21.929Z,62.21
2019-02-25T08:26:30.006Z,62.31
2019-02-25T08:27:38.029Z,63.45
2019-02-25T08:28:46.131Z,63.83
2019-02-25T08:29:54.176Z,63.35
2019-02-25T08:31:02.249Z,63.17
2019-02-25T08:32:10.308Z,63.26
2019-02-25T08:33:18.355Z,63.10
2019-02-25T08:34:26.420Z,62.53
2019-02-25T08:35:34.484Z,62.53
2019-02-25T08:36:42.538Z,62.62
2019-02-25T08:37:50.610Z,63.29
2019-02-25T08:38:58.668Z,62.24
2019-02-25T08:40:06.742Z,62.62
2019-02-25T08:41:14.791Z,63.39
2019-02-25T08:42:22.849Z,63.76
2019-02-25T08:43:30.929Z,63.01
2019-02-25T08:44:39.786Z,62.62
2019-02-25T08:45:47.054Z,62.24
2019-02-25T08:46:55.109Z,62.24
2019-02-25T08:48:03.183Z,61.96
2019-02-25T08:49:11.200Z,62.34
2019-02-25T08:50:19.257Z,62.62
2019-02-25T08:51:27.345Z,63.57
2019-02-25T08:52:35.383Z,62.34
2019-02-25T08:53:43.443Z,64.05
2019-02-25T08:54:51.512Z,62.72
2019-02-25T08:55:59.557Z,62.24
2019-02-25T08:57:07.672Z,62.05
2019-02-25T08:58:15.721Z,63.48
2019-02-25T08:59:23.750Z,64.14
2019-02-25T09:00:31.800Z,65.41
2019-02-25T09:01:39.879Z,64.27
2019-02-25T09:02:47.916Z,63.99
2019-02-25T09:03:55.992Z,64.37
2019-02-25T09:05:04.049Z,63.99
2019-02-25T09:06:12.120Z,62.94
2019-02-25T09:07:20.177Z,63.89
2019-02-25T09:08:28.246Z,63.13
2019-02-25T09:09:36.286Z,64.18
2019-02-25T09:10:44.339Z,64.11
2019-02-25T09:11:52.410Z,63.73
2019-02-25T09:13:00.466Z,62.59
2019-02-25T09:14:08.529Z,63.64
2019-02-25T09:15:16.601Z,64.11
2019-02-25T09:16:24.655Z,63.45
2019-02-25T09:17:32.728Z,63.73
2019-02-25T09:18:40.779Z,63.35
2019-02-25T09:19:48.847Z,62.69
2019-02-25T09:20:56.909Z,64.11
2019-02-25T09:22:04.970Z,62.62
2019-02-25T09:23:13.031Z,62.24
2019-02-25T09:24:21.089Z,61.58
2019-02-25T09:25:29.153Z,62.30
2019-02-25T09:26:37.204Z,62.97
2019-02-25T09:27:45.274Z,62.69
2019-02-25T09:28:53.323Z,64.50
2019-02-25T09:30:01.402Z,63.45
2019-02-25T09:31:09.447Z,62.69
2019-02-25T09:32:19.007Z,63.17
2019-02-25T09:33:25.576Z,63.45
2019-02-25T09:34:33.687Z,62.30
2019-02-25T09:35:41.800Z,63.07
2019-02-25T09:36:49.762Z,62.53
2019-02-25T09:37:57.791Z,62.53
2019-02-25T09:39:06.463Z,62.05
2019-02-25T09:40:14.528Z,62.91
2019-02-25T09:41:29.610Z,61.38
2019-02-25T09:42:30.158Z,60.72
2019-02-25T09:43:38.122Z,60.05
2019-02-25T09:44:46.191Z,62.05
2019-02-25T09:45:54.251Z,61.67
2019-02-25T09:47:02.325Z,61.48
2019-02-25T09:48:10.356Z,61.77
2019-02-25T09:49:18.431Z,61.29
2019-02-25T09:50:26.495Z,62.05
2019-02-25T09:51:34.562Z,60.91
2019-02-25T09:52:42.635Z,60.53
2019-02-25T09:53:50.674Z,60.53
2019-02-25T09:54:58.759Z,61.96
2019-02-25T09:56:06.797Z,60.53
2019-02-25T09:57:14.848Z,62.15
2019-02-25T09:58:22.941Z,62.91
2019-02-25T09:59:30.984Z,62.53
2019-02-25T10:00:39.040Z,60.37
2019-02-25T10:01:47.150Z,61.80
2019-02-25T10:02:55.217Z,61.42
2019-02-25T10:04:03.232Z,60.85
2019-02-25T10:05:11.333Z,59.99
2019-02-25T10:06:19.356Z,60.78
2019-02-25T10:07:27.396Z,59.54
2019-02-25T10:08:35.515Z,59.35
2019-02-25T10:09:43.544Z,59.74
2019-02-25T10:10:51.601Z,58.30
2019-02-25T10:11:59.670Z,58.11
2019-02-25T10:13:07.744Z,58.87
2019-02-25T10:14:15.800Z,58.02
2019-02-25T10:15:23.843Z,58.30
2019-02-25T10:16:31.907Z,58.28
2019-02-25T10:17:39.970Z,58.28
2019-02-25T10:18:48.025Z,59.03
2019-02-25T10:19:56.120Z,58.84
2019-02-25T10:21:04.149Z,59.13
2019-02-25T10:22:12.216Z,60.08
2019-02-25T10:23:20.314Z,59.92
2019-02-25T10:24:28.340Z,58.11
2019-02-25T10:25:36.409Z,59.26
2019-02-25T10:26:44.469Z,58.11
2019-02-25T10:27:52.543Z,58.40
2019-02-25T10:29:00.595Z,59.54
2019-02-25T10:30:08.661Z,58.78
2019-02-25T10:31:17.450Z,57.82
2019-02-25T10:32:25.873Z,58.40
2019-02-25T10:33:32.886Z,58.94
2019-02-25T10:34:40.959Z,59.13
2019-02-25T10:35:48.977Z,60.27
2019-02-25T10:36:57.084Z,59.89
2019-02-25T10:38:05.122Z,59.13
2019-02-25T10:39:15.330Z,59.03
2019-02-25T10:40:24.096Z,58.56
2019-02-25T10:41:29.278Z,58.50
2019-02-25T10:42:37.739Z,58.69
2019-02-25T10:43:45.417Z,57.82
2019-02-25T10:44:53.471Z,57.92
2019-02-25T10:46:01.537Z,58.40
2019-02-25T10:47:10.922Z,58.11
2019-02-25T10:48:19.360Z,59.16
2019-02-25T10:49:26.739Z,57.73
2019-02-25T10:50:35.580Z,57.16
2019-02-25T10:51:43.427Z,58.21
2019-02-25T10:52:49.961Z,58.40
2019-02-25T10:53:57.947Z,58.11
2019-02-25T10:55:06.037Z,58.40
2019-02-25T10:56:14.807Z,58.50
2019-02-25T10:57:23.947Z,57.45
2019-02-25T10:58:31.138Z,58.02
2019-02-25T10:59:39.457Z,58.21
2019-02-25T11:00:46.337Z,58.30
2019-02-25T11:01:54.410Z,58.50
2019-02-25T11:03:02.454Z,57.92
2019-02-25T11:04:10.528Z,59.26
2019-02-25T11:05:19.358Z,58.14
2019-02-25T11:06:27.376Z,57.09
2019-02-25T11:07:34.823Z,57.28
2019-02-25T11:08:43.578Z,58.75
2019-02-25T11:09:50.866Z,56.36
2019-02-25T11:10:58.923Z,55.88
2019-02-25T11:12:06.982Z,55.57
2019-02-25T11:13:15.038Z,55.85
2019-02-25T11:14:23.098Z,57.09
2019-02-25T11:15:31.168Z,57.67
2019-02-25T11:16:39.222Z,56.26
2019-02-25T11:17:47.953Z,55.79
2019-02-25T11:18:56.599Z,55.12
2019-02-25T11:20:05.253Z,55.02
2019-02-25T11:21:11.486Z,54.55
2019-02-25T11:22:19.538Z,55.76
2019-02-25T11:23:27.579Z,56.62
2019-02-25T11:24:35.655Z,56.84
2019-02-25T11:25:43.723Z,56.46
2019-02-25T11:26:51.797Z,55.88
2019-02-25T11:27:59.841Z,56.46
2019-02-25T11:29:09.350Z,56.07
2019-02-25T11:30:16.570Z,55.21
2019-02-25T11:31:26.381Z,55.12
2019-02-25T11:32:32.105Z,56.55
2019-02-25T11:33:40.171Z,54.57
2019-02-25T11:34:48.231Z,54.55
2019-02-25T11:35:56.310Z,55.41
2019-02-25T11:37:04.344Z,55.72
2019-02-25T11:38:12.432Z,54.48
2019-02-25T11:39:20.477Z,55.62
2019-02-25T11:40:30.648Z,54.48
2019-02-25T11:41:38.391Z,53.91
2019-02-25T11:42:44.673Z,54.19
2019-02-25T11:43:53.513Z,53.74
2019-02-25T11:45:02.223Z,54.79
2019-02-25T11:46:08.866Z,53.45
2019-02-25T11:47:16.960Z,53.33
2019-02-25T11:48:24.996Z,53.53
2019-02-25T11:49:33.058Z,54.10
2019-02-25T11:50:41.119Z,55.24
2019-02-25T11:51:49.189Z,55.15
2019-02-25T11:52:57.239Z,53.55
2019-02-25T11:54:05.313Z,54.32
2019-02-25T11:55:13.380Z,54.22
2019-02-25T11:56:21.436Z,53.45
2019-02-25T11:57:29.511Z,52.59
2019-02-25T11:58:37.563Z,53.43
2019-02-25T11:59:45.638Z,53.72
2019-02-25T12:00:53.689Z,54.29
2019-02-25T12:02:01.774Z,54.67
2019-02-25T12:03:09.821Z,53.33
2019-02-25T12:04:17.858Z,53.43
2019-02-25T12:05:25.939Z,53.43
2019-02-25T12:06:34.017Z,53.24
2019-02-25T12:07:42.084Z,54.19
2019-02-25T12:08:50.139Z,53.62
2019-02-25T12:09:58.185Z,53.45
2019-02-25T12:11:06.261Z,53.14
2019-02-25T12:12:14.335Z,53.91
2019-02-25T12:13:22.399Z,53.24
2019-02-25T12:14:30.452Z,53.43
2019-02-25T12:15:38.517Z,54.77
2019-02-25T12:16:46.583Z,55.05
2019-02-25T12:17:54.640Z,54.41
2019-02-25T12:19:02.723Z,53.74
2019-02-25T12:20:10.779Z,53.08
2019-02-25T12:21:18.837Z,52.98
2019-02-25T12:22:26.909Z,52.98
2019-02-25T12:23:34.969Z,53.08
2019-02-25T12:24:43.064Z,52.69
2019-02-25T12:25:51.115Z,53.08
2019-02-25T12:26:59.164Z,53.36
2019-02-25T12:28:07.211Z,54.41
2019-02-25T12:29:15.310Z,53.45
2019-02-25T12:30:23.347Z,52.69
2019-02-25T12:31:31.411Z,52.88
2019-02-25T12:32:39.471Z,52.88
2019-02-25T12:33:47.530Z,52.59
2019-02-25T12:34:55.607Z,52.22
2019-02-25T12:36:03.701Z,52.69
2019-02-25T12:37:11.737Z,52.59
2019-02-25T12:38:19.808Z,52.40
2019-02-25T12:39:27.897Z,53.27
2019-02-25T12:40:35.963Z,53.27
2019-02-25T12:41:44.020Z,53.55
2019-02-25T12:42:52.060Z,53.93
2019-02-25T12:44:00.153Z,52.69
2019-02-25T12:45:08.245Z,52.98
2019-02-25T12:46:16.249Z,52.34
2019-02-25T12:47:24.301Z,52.59
2019-02-25T12:48:32.380Z,52.59
2019-02-25T12:49:40.428Z,52.59
2019-02-25T12:50:48.510Z,52.98
2019-02-25T12:51:56.604Z,52.40
2019-02-25T12:53:04.677Z,53.17
2019-02-25T12:54:12.705Z,52.98
2019-02-25T12:55:20.773Z,53.17
2019-02-25T12:56:28.828Z,53.08
2019-02-25T12:57:36.897Z,52.53
2019-02-25T12:58:44.946Z,52.53
2019-02-25T12:59:53.033Z,52.24
2019-02-25T13:01:01.070Z,53.39
2019-02-25T13:02:09.143Z,52.62
2019-02-25T13:03:17.205Z,52.98
2019-02-25T13:04:25.277Z,53.00
2019-02-25T13:05:33.347Z,52.34
2019-02-25T13:06:41.390Z,52.43
2019-02-25T13:07:49.473Z,52.62
2019-02-25T13:08:57.511Z,52.05
2019-02-25T13:10:05.601Z,52.05
2019-02-25T13:11:13.659Z,52.53
2019-02-25T13:12:21.719Z,52.05
2019-02-25T13:13:29.797Z,52.91
2019-02-25T13:14:37.875Z,52.62
2019-02-25T13:15:45.922Z,53.49
2019-02-25T13:16:54.034Z,53.29
2019-02-25T13:18:02.035Z,52.91
2019-02-25T13:19:10.106Z,53.20
2019-02-25T13:20:18.201Z,53.49
2019-02-25T13:21:26.248Z,52.24
2019-02-25T13:22:34.304Z,52.53
2019-02-25T13:23:42.361Z,52.53
2019-02-25T13:24:50.422Z,52.94
2019-02-25T13:26:07.090Z,52.84
2019-02-25T13:27:08.396Z,52.17
2019-02-25T13:28:14.627Z,52.17
2019-02-25T13:29:22.711Z,52.84
2019-02-25T13:30:30.744Z,52.08
2019-02-25T13:31:38.813Z,52.84
2019-02-25T13:32:46.873Z,52.36
2019-02-25T13:33:54.953Z,52.17
2019-02-25T13:35:03.012Z,52.08
2019-02-25T13:36:11.069Z,51.89
2019-02-25T13:37:19.136Z,51.98
2019-02-25T13:38:27.184Z,52.65
2019-02-25T13:39:35.260Z,52.65
2019-02-25T13:40:43.315Z,52.65
2019-02-25T13:41:51.394Z,52.65
2019-02-25T13:42:59.453Z,52.55
2019-02-25T13:44:07.514Z,52.26
2019-02-25T13:45:15.571Z,52.94
2019-02-25T13:46:23.639Z,52.84
2019-02-25T13:47:31.707Z,53.03
2019-02-25T13:48:39.787Z,52.58
2019-02-25T13:49:47.821Z,52.08
2019-02-25T13:50:55.905Z,52.75
2019-02-25T13:52:03.969Z,52.58
2019-02-25T13:53:12.050Z,52.65
2019-02-25T13:54:20.124Z,52.08
2019-02-25T13:55:28.163Z,52.94
2019-02-25T13:56:36.241Z,52.55
2019-02-25T13:57:44.292Z,52.20
2019-02-25T13:58:52.361Z,52.84
2019-02-25T14:00:00.445Z,52.67
2019-02-25T14:01:08.493Z,52.65
2019-02-25T14:02:16.550Z,51.72
2019-02-25T14:03:24.629Z,52.65
2019-02-25T14:04:32.675Z,52.94
2019-02-25T14:05:40.747Z,52.94
2019-02-25T14:06:48.833Z,52.75
2019-02-25T14:07:56.873Z,52.84
2019-02-25T14:09:04.934Z,53.41
2019-02-25T14:10:13.013Z,53.61
2019-02-25T14:11:21.070Z,53.41
2019-02-25T14:12:29.250Z,52.94
2019-02-25T14:13:37.183Z,52.75
2019-02-25T14:14:45.270Z,53.51
2019-02-25T14:15:53.335Z,53.41
2019-02-25T14:17:01.387Z,52.94
2019-02-25T14:18:09.459Z,53.32
2019-02-25T14:19:17.525Z,53.61
2019-02-25T14:20:25.588Z,53.39
2019-02-25T14:21:34.457Z,53.58
2019-02-25T14:22:41.706Z,53.20
2019-02-25T14:23:49.779Z,53.29
2019-02-25T14:24:57.832Z,53.49
2019-02-25T14:26:05.904Z,53.39
2019-02-25T14:27:13.974Z,53.67
2019-02-25T14:28:22.047Z,53.58
2019-02-25T14:29:30.127Z,54.25
2019-02-25T14:30:38.139Z,53.96
2019-02-25T14:31:46.231Z,54.06
2019-02-25T14:32:54.308Z,53.49
2019-02-25T14:34:04.198Z,53.10
2019-02-25T14:35:10.428Z,54.06
2019-02-25T14:36:19.857Z,53.58